NEODyS-2

Near Earth Objects - Dynamic Site
NEODyS ∴ Observatories ∴ Site 691 ∴ Obs & residuals
Contact »
691  ▹ 
OBSERVATIONS AND RESIDUALS

691-Steward Observatory, Kitt Peak-Spacewatch

Detections | Residuals | Detections & Residuals

[1-200] [201-400] [401-600] [601-800] [801-1000] [1001-1200] [1201-1400] [1401-1600] [1601-1800] [1801-2000] [2001-2200] [2201-2400] [2401-2600] [2601-2800] [2801-3000] [3001-3200] [3201-3400] [3401-3600] [3601-3800] [3801-4000] [4001-4200] [4201-4400] [4401-4600] [4601-4800] [4801-5000] [5001-5200] [5201-5400] [5401-5600] [5601-5800] [5801-6000] [6001-6200] [6201-6400] [6401-6600] [6601-6800] [6801-7000] [7001-7200] [7201-7400] [7401-7600] [7601-7800] [7801-8000] [8001-8200] [8201-8400] [8401-8600] [8601-8800] [8801-9000] [9001-9200] [9201-9400] [9401-9600] [9601-9800] [9801-10000] [10001-10200] [10201-10400] [10401-10600] [10601-10800] [10801-11000] [11001-11200] [11201-11400] [11401-11600] [11601-11800] [11801-12000] [12001-12200] [12201-12400] [12401-12600] [12601-12800] [12801-13000] [13001-13200] [13201-13400] [13401-13600] [13601-13800] [13801-14000] [14001-14200] [14201-14400] [14401-14600] [14601-14800] [14801-15000] [15001-15200] [15201-15400] [15401-15600] [15601-15800] [15801-16000] [16001-16200] [16201-16400] [16401-16600] [16601-16800] [16801-17000] [17001-17200] [17201-17400] [17401-17600] [17601-17800] [17801-18000] [18001-18200] [18201-18400] [18401-18600] [18601-18800] [18801-19000] [19001-19200] [19201-19400] [19401-19600] [19601-19800] [19801-20000] [20001-20200] [20201-20400] [20401-20600] [20601-20800] [20801-21000] [21001-21200] [21201-21400] [21401-21600] [21601-21800] [21801-22000] [22001-22200] [22201-22400] [22401-22600] [22601-22800] [22801-23000] [23001-23200] [23201-23400] [23401-23600] [23601-23800] [23801-24000] [24001-24200] [24201-24400] [24401-24600] [24601-24800] [24801-25000] [25001-25200] [25201-25400] [25401-25600] [25601-25800] [25801-26000] [26001-26200] [26201-26400] [26401-26600] [26601-26800] [26801-27000] [27001-27200] [27201-27400] [27401-27600] [27601-27800] [27801-28000] [28001-28200] [28201-28400] [28401-28600] [28601-28800] [28801-29000] [29001-29200] [29201-29400] [29401-29600] [29601-29800] [29801-30000] [30001-30200] [30201-30400] [30401-30600] [30601-30800] [30801-31000] [31001-31200] [31201-31400] [31401-31600] [31601-31800] [31801-32000] [32001-32200] [32201-32400] [32401-32600] [32601-32800] [32801-33000] [33001-33200] [33201-33400] [33401-33600] [33601-33800] [33801-34000] [34001-34200] [34201-34400] [34401-34600] [34601-34800] [34801-35000] [35001-35200] [35201-35400] [35401-35600] [35601-35800] [35801-36000] [36001-36200] [36201-36400] [36401-36600] [36601-36800] [36801-37000] [37001-37200] [37201-37400] [37401-37600] [37601-37800] [37801-38000] [38001-38200] [38201-38400] [38401-38600] [38601-38800] [38801-39000] [39001-39200] [39201-39400] [39401-39600] [39601-39800] [39801-40000] [40001-40200] [40201-40400] [40401-40600] [40601-40800] [40801-41000] [41001-41200] [41201-41400] [41401-41600] [41601-41800] [41801-42000] [42001-42200] [42201-42400] [42401-42600] [42601-42800] [42801-43000] [43001-43200] [43201-43400] [43401-43600] [43601-43800] [43801-44000] [44001-44200] [44201-44400] [44401-44600] [44601-44800] [44801-45000] [45001-45200] [45201-45400] [45401-45600] [45601-45800] [45801-46000] [46001-46200] [46201-46400] [46401-46600] [46601-46800] [46801-47000] [47001-47200] [47201-47400] [47401-47600] [47601-47800] [47801-48000] [48001-48200] [48201-48400] [48401-48600] [48601-48800] [48801-49000] [49001-49200] [49201-49400] [49401-49600] [49601-49800] [49801-50000] [50001-50200] [50201-50388]

Designation T Tech N Date Right Ascension Declination Apparent Magnitude Star Catalog Site code χ Used A Used M
yr-mo-day precision hr:min:sec precision rms F bias residual deg min sec precision rms F bias residual mag/col rms residual
2006BC10 O C 2009-02-05.41364 1.000E-05 10:33:53.800 1.500E-01 0.500 F 0.086 0.034 +11° 26' 15.20" 1.000E-01 0.500 F 0.262 0.166 19.8 V 0.70 0.12 o 691 0.34 Yes Yes
2006BC10 O C 2009-02-05.43203 1.000E-05 10:33:52.670 1.500E-01 0.500 F 0.086 -0.097 +11° 26' 22.80" 1.000E-01 0.500 F 0.262 -0.064 19.7 V 0.70 0.02 o 691 0.23 Yes Yes
2006BC10 O C 2009-02-05.45016 1.000E-05 10:33:51.560 1.500E-01 0.500 F 0.086 -0.209 +11° 26' 30.60" 1.000E-01 0.500 F 0.262 0.042 19.8 V 0.70 0.12 o 691 0.43 Yes Yes
1999CU3 O C 2009-02-05.46081 1.000E-05 11:11:38.820 1.500E-01 0.500 F 0.145 -0.084 +09° 10' 40.00" 1.000E-01 0.500 F 0.094 -0.009 18.8 V 0.70 0.13 o 691 0.17 Yes Yes
1999CU3 O C 2009-02-05.47916 1.000E-05 11:11:37.520 1.500E-01 0.500 F 0.145 -0.027 +09° 10' 41.20" 1.000E-01 0.500 F 0.094 0.058 18.7 V 0.70 0.03 o 691 0.13 Yes Yes
1999CU3 O C 2009-02-05.49725 1.000E-05 11:11:36.230 1.500E-01 0.500 F 0.145 -0.131 +09° 10' 42.30" 1.000E-01 0.500 F 0.094 0.054 18.8 V 0.70 0.13 o 691 0.28 Yes Yes
2009CR4 O C 2009-02-13.11420 1.000E-05 08:36:36.710 1.500E-01 0.500 F 0.051 0.023 +20° 21' 07.70" 1.000E-01 0.500 F 0.149 0.395 20.2 V 0.70 0.12 o 691 0.80 Yes Yes
2009CR4 O C 2009-02-13.13056 1.000E-05 08:36:34.710 1.500E-01 0.500 F 0.051 1.223 +20° 20' 59.30" 1.000E-01 0.500 F 0.149 0.555 20.0 V 0.70 -0.08 o 691 2.71 Yes Yes
2009CR4 O C 2009-02-13.14693 1.000E-05 08:36:32.510 1.500E-01 0.500 F 0.051 -0.141 +20° 20' 50.30" 1.000E-01 0.500 F 0.149 0.194 20.3 V 0.70 0.22 o 691 0.49 Yes Yes
2000WO67 O C H 2009-02-13.21374 1.000E-05 09:00:42.960 1.500E-01 0.500 F -0.007 0.280 +23° 38' 04.70" 1.000E-01 0.500 F 0.276 -0.818 o 691 1.74 Yes No
2000WO67 O C H 2009-02-13.22736 1.000E-05 09:00:42.050 1.500E-01 0.500 F -0.007 0.018 +23° 38' 08.10" 1.000E-01 0.500 F 0.276 -1.594 o 691 3.18 No No
2002PG80 O C H 2009-02-13.31827 1.000E-05 10:56:02.080 1.500E-01 0.500 F 0.108 0.384 +02° 12' 19.10" 1.000E-01 0.500 F 0.069 0.274 20.9 V 0.70 0.13 o 691 0.95 Yes Yes
2002PG80 O C H 2009-02-13.33658 1.000E-05 10:56:00.650 1.500E-01 0.500 F 0.108 0.158 +02° 12' 29.30" 1.000E-01 0.500 F 0.069 -0.146 20.5 V 0.70 -0.27 o 691 0.44 Yes Yes
2002PG80 O C H 2009-02-13.35465 1.000E-05 10:55:59.260 1.500E-01 0.500 F 0.108 0.274 +02° 12' 39.70" 1.000E-01 0.500 F 0.069 -0.226 20.9 V 0.70 0.13 o 691 0.72 Yes Yes
1999JV6 O C t 2009-02-13.50673 1.000E-05 12:40:56.930 1.500E-01 0.500 F 0.174 0.201 +06° 17' 01.20" 1.000E-01 0.500 F 0.078 -0.564 o 691 1.20 Yes No
1999JV6 O C t 2009-02-13.52480 1.000E-05 12:40:55.340 1.500E-01 0.500 F 0.174 0.589 +06° 17' 29.70" 1.000E-01 0.500 F 0.078 -0.476 o 691 1.52 Yes No
2009CR5 O C 2009-02-14.13380 1.000E-05 07:52:08.030 1.500E-01 0.500 F -0.032 -1.160 +20° 09' 48.20" 1.000E-01 0.500 F 0.248 -0.065 21.1 V 0.70 -0.01 o 691 2.39 Yes Yes
2009BK71 O C 2009-02-14.13651 1.000E-05 08:00:00.800 1.500E-01 0.500 F 0.009 -0.306 +24° 10' 57.40" 1.000E-01 0.500 F 0.204 -0.653 19.3 V 0.70 -0.13 o 691 1.48 Yes Yes
2009CR5 O C 2009-02-14.15055 1.000E-05 07:52:04.640 1.500E-01 0.500 F -0.032 -0.092 +20° 09' 43.10" 1.000E-01 0.500 F 0.248 -0.070 20.8 V 0.70 -0.31 o 691 0.24 Yes Yes
2009BK71 O C 2009-02-14.15324 1.000E-05 07:59:58.530 1.500E-01 0.500 F 0.009 -0.037 +24° 09' 50.40" 1.000E-01 0.500 F 0.204 0.016 19.4 V 0.70 -0.03 o 691 0.08 Yes Yes
2009CR5 O C 2009-02-14.16730 1.000E-05 07:52:01.110 1.500E-01 0.500 F -0.032 -0.865 +20° 09' 37.20" 1.000E-01 0.500 F 0.248 -0.784 20.5 V 0.70 -0.61 o 691 2.38 Yes Yes
2009BK71 O C 2009-02-14.17000 1.000E-05 07:59:56.220 1.500E-01 0.500 F 0.009 -0.201 +24° 08' 42.50" 1.000E-01 0.500 F 0.204 -0.065 19.6 V 0.70 0.17 o 691 0.43 Yes Yes
2009CS5 O C 2009-02-14.19056 1.000E-05 08:34:16.200 1.500E-01 0.500 F -0.016 0.133 +24° 11' 10.50" 1.000E-01 0.500 F 0.284 -0.583 21.2 V 0.70 0.52 o 691 1.21 Yes Yes
2009CS5 O C 2009-02-14.20381 1.000E-05 08:34:13.240 1.500E-01 0.500 F -0.016 -0.272 +24° 11' 04.80" 1.000E-01 0.500 F 0.284 0.495 21.2 V 0.70 0.51 o 691 1.15 Yes Yes
2009CS5 O C 2009-02-14.21730 1.000E-05 08:34:10.220 1.500E-01 0.500 F -0.016 -0.744 +24° 10' 57.10" 1.000E-01 0.500 F 0.284 -0.270 20.9 V 0.70 0.21 o 691 1.60 Yes Yes
2005GW119 O C H 2009-02-14.35941 1.000E-05 11:56:44.120 1.500E-01 0.500 F 0.067 0.660 -00° 58' 16.90" 1.000E-01 0.500 F 0.158 0.590 20.1 V 0.70 0.00 o 691 1.77 Yes Yes
2005GW119 O C H 2009-02-14.37748 1.000E-05 11:56:43.080 1.500E-01 0.500 F 0.067 -0.269 -00° 58' 08.60" 1.000E-01 0.500 F 0.158 0.021 20.2 V 0.70 0.10 o 691 0.54 Yes Yes
2005GW119 O C H 2009-02-14.39309 1.000E-05 11:56:42.210 1.500E-01 0.500 F 0.067 -0.615 -00° 58' 00.70" 1.000E-01 0.500 F 0.158 0.252 20.1 V 0.70 0.00 o 691 1.34 Yes Yes
1999AQ10 O C t 2009-02-14.41604 1.000E-05 12:35:45.930 1.500E-01 0.500 F 0.178 0.920 -00° 03' 24.20" 1.000E-01 0.500 F 0.254 -0.671 o 691 2.39 Yes No
1999AQ10 O C t 2009-02-14.43436 1.000E-05 12:35:53.880 1.500E-01 0.500 F 0.178 -0.631 -00° 09' 14.40" 1.000E-01 0.500 F 0.254 2.391 14.1 V 0.70 0.22 o 691 4.90 No Yes
1999AQ10 O C t 2009-02-14.45244 1.000E-05 12:36:01.940 1.500E-01 0.500 F 0.178 0.276 -00° 15' 09.10" 1.000E-01 0.500 F 0.254 -1.400 o 691 2.88 Yes No
1999BY9 O C 2009-02-16.31346 1.000E-05 11:52:26.080 1.500E-01 0.500 F 0.130 -0.323 -02° 52' 10.80" 1.000E-01 0.500 F 0.125 -0.052 o 691 0.66 Yes No
2005EG94 O C H 2009-02-16.31346 1.000E-05 11:50:42.590 1.500E-01 0.500 F 0.165 0.691 -03° 41' 08.20" 1.000E-01 0.500 F 0.195 0.405 21.4 V 0.70 -0.39 o 691 1.61 Yes Yes
1996EN O C 2009-02-16.31837 1.000E-05 12:00:50.900 1.500E-01 0.500 F 0.173 -0.262 -03° 43' 14.30" 1.000E-01 0.500 F 0.089 0.156 o 691 0.61 Yes No
2005EJ94 O C 2009-02-16.32623 1.000E-05 12:00:26.680 1.500E-01 0.500 F 0.163 0.147 -04° 22' 53.60" 1.000E-01 0.500 F 0.130 -0.180 o 691 0.47 Yes No
1999BY9 O C 2009-02-16.33155 1.000E-05 11:52:26.870 1.500E-01 0.500 F 0.130 -0.231 -02° 52' 19.80" 1.000E-01 0.500 F 0.125 -0.027 o 691 0.47 Yes No
2005EG94 O C H 2009-02-16.33155 1.000E-05 11:50:41.060 1.500E-01 0.500 F 0.165 -0.625 -03° 41' 05.50" 1.000E-01 0.500 F 0.195 0.582 21.5 V 0.70 -0.29 o 691 1.72 Yes Yes
1996EN O C 2009-02-16.33670 1.000E-05 12:00:50.450 1.500E-01 0.500 F 0.173 -0.097 -03° 42' 36.30" 1.000E-01 0.500 F 0.089 0.049 o 691 0.22 Yes No
2005EJ94 O C 2009-02-16.34456 1.000E-05 12:00:26.390 1.500E-01 0.500 F 0.163 0.097 -04° 23' 02.50" 1.000E-01 0.500 F 0.130 -0.006 o 691 0.20 Yes No
2005EG94 O C H 2009-02-16.34962 1.000E-05 11:50:39.630 1.500E-01 0.500 F 0.165 -0.429 -03° 41' 03.70" 1.000E-01 0.500 F 0.195 -0.147 21.3 V 0.70 -0.49 o 691 0.91 Yes Yes
1999BY9 O C 2009-02-16.34963 1.000E-05 11:52:27.640 1.500E-01 0.500 F 0.130 -0.313 -02° 52' 28.70" 1.000E-01 0.500 F 0.125 0.075 o 691 0.65 Yes No
1996EN O C 2009-02-16.35478 1.000E-05 12:00:49.990 1.500E-01 0.500 F 0.173 -0.108 -03° 41' 58.70" 1.000E-01 0.500 F 0.089 0.026 o 691 0.22 Yes No
2005EJ94 O C 2009-02-16.36296 1.000E-05 12:00:26.090 1.500E-01 0.500 F 0.163 -0.031 -04° 23' 11.40" 1.000E-01 0.500 F 0.130 0.193 o 691 0.40 Yes No
2000WO67 O C H 2009-02-17.21425 1.000E-05 08:56:33.130 1.500E-01 0.500 F 0.033 -0.136 +23° 57' 11.00" 1.000E-01 0.500 F 0.271 -0.676 21.5 V 0.70 -0.26 o 691 1.38 Yes Yes
2000WO67 O C 2009-02-19.16302 1.000E-05 08:54:36.730 1.500E-01 0.500 F 0.033 -0.087 +24° 05' 40.20" 1.000E-01 0.500 F 0.271 -0.043 21.6 V 0.70 -0.22 o 691 0.19 Yes Yes
2000WO67 O C 2009-02-19.17675 1.000E-05 08:54:35.900 1.500E-01 0.500 F 0.033 -0.172 +24° 05' 44.20" 1.000E-01 0.500 F 0.271 0.425 21.4 V 0.70 -0.42 o 691 0.92 Yes Yes
2000WO67 O C 2009-02-19.19071 1.000E-05 08:54:35.020 1.500E-01 0.500 F 0.033 -0.742 +24° 05' 47.40" 1.000E-01 0.500 F 0.271 0.043 21.5 V 0.70 -0.32 o 691 1.49 Yes Yes
2005GW119 O C 2009-02-19.30119 1.000E-05 11:52:06.730 1.500E-01 0.500 F 0.162 0.793 -00° 14' 04.40" 1.000E-01 0.500 F 0.121 -0.194 19.8 V 0.70 -0.17 o 691 1.64 Yes Yes
2005GW119 O C 2009-02-19.31928 1.000E-05 11:52:05.470 1.500E-01 0.500 F 0.162 -0.261 -00° 13' 53.80" 1.000E-01 0.500 F 0.121 -0.094 20.1 V 0.70 0.13 o 691 0.56 Yes Yes
2005GW119 O C 2009-02-19.33599 1.000E-05 11:52:04.360 1.500E-01 0.500 F 0.162 -0.366 -00° 13' 44.10" 1.000E-01 0.500 F 0.121 -0.099 20.2 V 0.70 0.23 o 691 0.76 Yes Yes
2004NL8 O C 2009-02-19.40787 1.000E-05 12:48:35.590 1.500E-01 0.500 F 0.083 -0.440 -03° 52' 14.80" 1.000E-01 0.500 F 0.122 0.168 17.2 V 0.70 0.43 o 691 0.95 Yes Yes
2009DL1 O C 2009-02-19.40787 1.000E-05 12:51:14.550 1.500E-01 0.500 F 0.166 -0.328 -03° 44' 51.50" 1.000E-01 0.500 F 0.163 -0.224 19.2 V 0.70 -0.12 o 691 0.80 Yes Yes
1996BZ3 O C 2009-02-19.41328 1.000E-05 12:34:23.680 1.500E-01 0.500 F 0.216 -0.121 -05° 13' 14.70" 1.000E-01 0.500 F 0.119 0.034 19.8 V 0.70 0.23 o 691 0.26 Yes Yes
2004NL8 O C 2009-02-19.42597 1.000E-05 12:48:32.110 1.500E-01 0.500 F 0.083 -0.340 -03° 51' 40.00" 1.000E-01 0.500 F 0.122 0.215 17.3 V 0.70 0.53 o 691 0.81 Yes Yes
2009DL1 O C 2009-02-19.42597 1.000E-05 12:51:16.250 1.500E-01 0.500 F 0.166 -0.438 -03° 45' 10.30" 1.000E-01 0.500 F 0.163 -0.317 19.2 V 0.70 -0.12 o 691 1.09 Yes Yes
1996BZ3 O C 2009-02-19.43138 1.000E-05 12:34:23.020 1.500E-01 0.500 F 0.216 0.098 -05° 13' 06.60" 1.000E-01 0.500 F 0.119 0.107 20.0 V 0.70 0.43 o 691 0.29 Yes Yes
2004NL8 O C 2009-02-19.44432 1.000E-05 12:48:28.590 1.500E-01 0.500 F 0.083 -0.123 -03° 51' 04.60" 1.000E-01 0.500 F 0.122 0.373 17.3 V 0.70 0.53 o 691 0.79 Yes Yes
2009DL1 O C 2009-02-19.44432 1.000E-05 12:51:17.980 1.500E-01 0.500 F 0.166 -0.445 -03° 45' 29.00" 1.000E-01 0.500 F 0.163 -0.061 19.2 V 0.70 -0.12 o 691 0.90 Yes Yes
1996BZ3 O C 2009-02-19.44947 1.000E-05 12:34:22.330 1.500E-01 0.500 F 0.216 -0.134 -05° 12' 58.60" 1.000E-01 0.500 F 0.119 0.067 20.0 V 0.70 0.43 o 691 0.30 Yes Yes
2009DO1 O C 2009-02-19.47016 1.000E-05 12:54:10.360 1.500E-01 0.500 F 0.197 -0.139 -08° 47' 59.90" 1.000E-01 0.500 F -0.047 0.145 19.9 V 0.70 0.17 o 691 0.42 Yes Yes
2009DO1 O C 2009-02-19.48825 1.000E-05 12:54:19.040 1.500E-01 0.500 F 0.197 0.100 -08° 47' 14.20" 1.000E-01 0.500 F -0.047 -0.045 20.1 V 0.70 0.37 o 691 0.23 Yes Yes
2009DO1 O C 2009-02-19.50660 1.000E-05 12:54:27.820 1.500E-01 0.500 F 0.263 -0.365 -08° 46' 27.60" 1.000E-01 0.500 F -0.076 -0.124 19.7 V 0.70 -0.04 o 691 0.82 Yes Yes
Toutatis O C H 2009-02-20.13668 1.000E-05 08:13:02.300 1.500E-01 0.500 F 0.020 0.168 +20° 11' 38.60" 1.000E-01 0.500 F 0.266 -1.402 o 691 2.82 Yes No
Toutatis O C H 2009-02-20.15348 1.000E-05 08:13:02.210 1.500E-01 0.500 F 0.020 0.000 +20° 11' 39.50" 1.000E-01 0.500 F 0.266 -1.028 o 691 2.06 Yes No
Toutatis O C H 2009-02-20.17029 1.000E-05 08:13:02.140 1.500E-01 0.500 F 0.020 0.162 +20° 11' 40.00" 1.000E-01 0.500 F 0.266 -1.017 o 691 2.06 Yes No
2009CR4 O C 2009-02-20.17827 1.000E-05 08:22:12.980 1.500E-01 0.500 F -0.028 -0.165 +18° 58' 37.40" 1.000E-01 0.500 F 0.244 -0.121 20.1 V 0.70 0.04 o 691 0.41 Yes Yes
2003RB O C 2009-02-20.18930 1.000E-05 08:32:39.250 1.500E-01 0.500 F 0.062 -0.178 +18° 47' 22.70" 1.000E-01 0.500 F 0.200 -0.122 21.0 V 0.70 -0.40 o 691 0.43 Yes Yes
2009CR4 O C 2009-02-20.19438 1.000E-05 08:22:10.830 1.500E-01 0.500 F -0.028 0.130 +18° 58' 24.30" 1.000E-01 0.500 F 0.244 -0.065 20.1 V 0.70 0.04 o 691 0.29 Yes Yes
2003RB O C 2009-02-20.20541 1.000E-05 08:32:38.080 1.500E-01 0.500 F 0.062 -0.713 +18° 47' 23.70" 1.000E-01 0.500 F 0.200 0.189 20.8 V 0.70 -0.60 o 691 1.48 Yes Yes
2009CR4 O C 2009-02-20.21048 1.000E-05 08:22:08.640 1.500E-01 0.500 F -0.028 -0.070 +18° 58' 11.00" 1.000E-01 0.500 F 0.244 -0.109 20.1 V 0.70 0.04 o 691 0.26 Yes Yes
2003RB O C 2009-02-20.22152 1.000E-05 08:32:36.970 1.500E-01 0.500 F 0.062 -0.388 +18° 47' 24.10" 1.000E-01 0.500 F 0.200 -0.078 20.7 V 0.70 -0.70 o 691 0.79 Yes Yes
1999BY9 O C 2009-02-20.29176 1.000E-05 11:55:34.300 1.500E-01 0.500 F 0.167 -0.411 -03° 23' 07.70" 1.000E-01 0.500 F 0.167 0.083 17.5 V 0.70 0.10 o 691 0.84 Yes Yes
1999BY9 O C 2009-02-20.31010 1.000E-05 11:55:34.960 1.500E-01 0.500 F 0.167 -0.332 -03° 23' 15.80" 1.000E-01 0.500 F 0.167 0.071 17.4 V 0.70 0.00 o 691 0.68 Yes Yes
1999BY9 O C 2009-02-20.32821 1.000E-05 11:55:35.600 1.500E-01 0.500 F 0.167 -0.284 -03° 23' 23.70" 1.000E-01 0.500 F 0.167 0.138 17.4 V 0.70 0.00 o 691 0.63 Yes Yes
2005EJ94 O C 2009-02-20.35157 1.000E-05 11:59:17.600 1.500E-01 0.500 F 0.176 0.001 -04° 55' 38.60" 1.000E-01 0.500 F 0.161 -0.036 20.6 V 0.70 -0.16 o 691 0.07 Yes Yes
2005EJ94 O C 2009-02-20.36967 1.000E-05 11:59:17.130 1.500E-01 0.500 F 0.176 -0.016 -04° 55' 47.70" 1.000E-01 0.500 F 0.161 -0.377 20.4 V 0.70 -0.36 o 691 0.76 Yes Yes
2005EJ94 O C 2009-02-20.38803 1.000E-05 11:59:16.660 1.500E-01 0.500 F 0.176 0.098 -04° 55' 56.30" 1.000E-01 0.500 F 0.161 -0.105 20.7 V 0.70 -0.06 o 691 0.29 Yes Yes
2009BD77 O C t 2009-02-20.40077 1.000E-05 12:43:52.670 1.500E-01 0.500 F 0.117 0.654 -00° 47' 08.40" 1.000E-01 0.500 F 0.194 -0.236 17.6 V 0.70 -0.28 o 691 1.42 Yes Yes
2006EV52 O C H 2009-02-20.40077 1.000E-05 12:39:45.270 1.500E-01 0.500 F 0.127 -0.338 -00° 26' 35.00" 1.000E-01 0.500 F 0.181 -0.003 21.5 V 0.70 0.20 o 691 0.68 Yes Yes
2002EZ11 O C 2009-02-20.41374 1.000E-05 12:55:57.970 1.500E-01 0.500 F 0.089 -0.378 -00° 52' 13.70" 1.000E-01 0.500 F 0.272 -0.201 19.6 V 0.70 -0.09 o 691 0.86 Yes Yes
2006EV52 O C H 2009-02-20.41915 1.000E-05 12:39:44.560 1.500E-01 0.500 F 0.127 -0.202 -00° 26' 26.10" 1.000E-01 0.500 F 0.181 -0.034 21.2 V 0.70 -0.10 o 691 0.41 Yes Yes
2009BD77 O C t 2009-02-20.41915 1.000E-05 12:43:44.250 1.500E-01 0.500 F 0.117 0.366 -00° 48' 28.40" 1.000E-01 0.500 F 0.194 -0.447 17.5 V 0.70 -0.38 o 691 1.18 Yes Yes
2002EZ11 O C 2009-02-20.43209 1.000E-05 12:55:54.690 1.500E-01 0.500 F 0.089 -0.227 -00° 51' 51.50" 1.000E-01 0.500 F 0.272 0.009 19.7 V 0.70 0.01 o 691 0.45 Yes Yes
2006EV52 O C H 2009-02-20.43725 1.000E-05 12:39:43.860 1.500E-01 0.500 F 0.127 -0.072 -00° 26' 17.00" 1.000E-01 0.500 F 0.181 0.268 21.3 V 0.70 0.00 o 691 0.56 Yes Yes
2002EZ11 O C 2009-02-20.44772 1.000E-05 12:55:51.890 1.500E-01 0.500 F 0.089 -0.176 -00° 51' 32.60" 1.000E-01 0.500 F 0.272 0.172 19.8 V 0.70 0.11 o 691 0.49 Yes Yes
Krok O C 2009-02-20.46579 1.000E-05 13:06:58.030 1.500E-01 0.500 F 0.215 -0.096 -04° 53' 11.50" 1.000E-01 0.500 F 0.103 -0.026 20.1 V 0.70 -0.46 o 691 0.20 Yes Yes
Krok O C 2009-02-20.48390 1.000E-05 13:06:57.710 1.500E-01 0.500 F 0.215 0.080 -04° 53' 06.20" 1.000E-01 0.500 F 0.103 0.011 20.0 V 0.70 -0.56 o 691 0.16 Yes Yes
Krok O C 2009-02-20.50225 1.000E-05 13:06:57.350 1.500E-01 0.500 F 0.215 -0.283 -04° 53' 00.80" 1.000E-01 0.500 F 0.103 0.069 20.1 V 0.70 -0.46 o 691 0.58 Yes Yes
2000WO67 O C 2009-02-22.10342 1.000E-05 08:51:48.510 1.500E-01 0.500 F 0.007 -0.139 +24° 17' 24.90" 1.000E-01 0.500 F 0.265 -0.034 o 691 0.29 Yes No
2000WO67 O C 2009-02-22.12295 1.000E-05 08:51:47.390 1.500E-01 0.500 F 0.007 -0.368 +24° 17' 29.40" 1.000E-01 0.500 F 0.265 -0.090 o 691 0.76 Yes No
2000WO67 O C 2009-02-22.14248 1.000E-05 08:51:46.290 1.500E-01 0.500 F 0.007 -0.293 +24° 17' 33.10" 1.000E-01 0.500 F 0.265 -0.928 o 691 1.95 Yes No
1988XB O C H 2009-02-22.29337 1.000E-05 12:08:51.710 1.500E-01 0.500 F 0.304 -0.584 +04° 59' 13.60" 1.000E-01 0.500 F 0.137 -0.151 20.9 V 0.70 0.07 o 691 1.20 Yes Yes
1988XB O C H 2009-02-22.31171 1.000E-05 12:08:50.320 1.500E-01 0.500 F 0.304 -0.747 +04° 59' 23.90" 1.000E-01 0.500 F 0.137 -0.354 20.6 V 0.70 -0.23 o 691 1.65 Yes Yes
1988XB O C H 2009-02-22.32727 1.000E-05 12:08:49.240 1.500E-01 0.500 F 0.304 0.639 +04° 59' 32.00" 1.000E-01 0.500 F 0.137 -1.164 o 691 2.66 Yes No
2009DO111 O C 2009-02-22.33494 1.000E-05 12:20:19.700 1.500E-01 0.500 F 0.175 -0.101 +07° 51' 01.90" 1.000E-01 0.500 F 0.113 -0.007 o 691 0.20 Yes No
2002AV4 O C 2009-02-22.34518 1.000E-05 12:24:41.190 1.500E-01 0.500 F 0.146 -0.814 +06° 07' 36.40" 1.000E-01 0.500 F 0.200 -0.027 o 691 1.63 Yes No
2009DO111 O C 2009-02-22.35304 1.000E-05 12:20:19.850 1.500E-01 0.500 F 0.175 -0.201 +07° 51' 05.20" 1.000E-01 0.500 F 0.113 -0.160 o 691 0.52 Yes No
2002AV4 O C 2009-02-22.36328 1.000E-05 12:24:40.070 1.500E-01 0.500 F 0.146 -0.175 +06° 07' 43.20" 1.000E-01 0.500 F 0.200 -0.287 o 691 0.67 Yes No
2009DO111 O C 2009-02-22.37115 1.000E-05 12:20:19.980 1.500E-01 0.500 F 0.175 -0.377 +07° 51' 08.60" 1.000E-01 0.500 F 0.113 -0.135 o 691 0.81 Yes No
2002AV4 O C 2009-02-22.38163 1.000E-05 12:24:38.870 1.500E-01 0.500 F 0.146 -0.465 +06° 07' 50.40" 1.000E-01 0.500 F 0.200 -0.240 o 691 1.05 Yes No
1999BY9 O C H 2009-02-24.30913 1.000E-05 11:58:13.120 1.500E-01 0.500 F 0.167 -0.190 -03° 50' 15.30" 1.000E-01 0.500 F 0.167 0.041 o 691 0.39 Yes No
1997EH29 O C t 2009-02-24.31159 1.000E-05 12:04:56.690 1.500E-01 0.500 F 0.203 0.216 -05° 05' 00.40" 1.000E-01 0.500 F 0.120 -0.899 o 691 1.85 Yes No
1999BY9 O C H 2009-02-24.32746 1.000E-05 11:58:13.610 1.500E-01 0.500 F 0.167 -0.241 -03° 50' 22.20" 1.000E-01 0.500 F 0.167 0.039 o 691 0.49 Yes No
1997EH29 O C t 2009-02-24.33016 1.000E-05 12:04:53.940 1.500E-01 0.500 F 0.203 0.634 -05° 04' 32.50" 1.000E-01 0.500 F 0.120 -0.244 o 691 1.37 Yes No
1999BY9 O C H 2009-02-24.34579 1.000E-05 11:58:14.090 1.500E-01 0.500 F 0.167 -0.334 -03° 50' 29.10" 1.000E-01 0.500 F 0.167 0.014 o 691 0.67 Yes No
1997EH29 O C t 2009-02-24.34824 1.000E-05 12:04:51.220 1.500E-01 0.500 F 0.203 0.460 -05° 04' 06.80" 1.000E-01 0.500 F 0.120 -1.087 o 691 2.37 Yes No
2006EV52 O C H 2009-02-24.35977 1.000E-05 12:37:03.740 1.500E-01 0.500 F 0.179 -0.290 +00° 07' 02.40" 1.000E-01 0.500 F 0.254 -0.616 21.5 V 0.70 0.32 o 691 1.36 Yes Yes
2002EZ11 O C 2009-02-24.36247 1.000E-05 12:44:00.850 1.500E-01 0.500 F 0.129 -0.702 +00° 28' 57.40" 1.000E-01 0.500 F 0.189 0.510 o 691 1.74 Yes No
2009FD O C 2009-02-24.36493 1.000E-05 12:52:49.370 1.500E-01 0.500 F 0.204 -0.107 +00° 09' 47.30" 1.000E-01 0.500 F 0.272 -0.251 o 691 0.55 Yes No
2006EV52 O C H 2009-02-24.37810 1.000E-05 12:37:02.930 1.500E-01 0.500 F 0.179 0.078 +00° 07' 12.50" 1.000E-01 0.500 F 0.254 -0.293 21.2 V 0.70 0.02 o 691 0.61 Yes Yes
2002EZ11 O C 2009-02-24.38055 1.000E-05 12:43:57.390 1.500E-01 0.500 F 0.129 -0.460 +00° 29' 19.80" 1.000E-01 0.500 F 0.189 0.054 o 691 0.93 Yes No
2009FD O C 2009-02-24.38301 1.000E-05 12:52:49.940 1.500E-01 0.500 F 0.204 -0.585 +00° 09' 45.40" 1.000E-01 0.500 F 0.272 -0.213 o 691 1.25 Yes No
2006EV52 O C H 2009-02-24.39618 1.000E-05 12:37:02.060 1.500E-01 0.500 F 0.179 -0.609 +00° 07' 22.10" 1.000E-01 0.500 F 0.254 -0.341 21.4 V 0.70 0.22 o 691 1.40 Yes Yes
2002EZ11 O C 2009-02-24.39864 1.000E-05 12:43:53.930 1.500E-01 0.500 F 0.129 -0.148 +00° 29' 42.70" 1.000E-01 0.500 F 0.189 0.083 o 691 0.34 Yes No
2009FD O C 2009-02-24.40134 1.000E-05 12:52:50.580 1.500E-01 0.500 F 0.204 -0.059 +00° 09' 43.60" 1.000E-01 0.500 F 0.272 -0.051 o 691 0.16 Yes No
2002EN7 O C 2009-02-24.42272 1.000E-05 13:06:15.380 1.500E-01 0.500 F 0.108 -0.292 -02° 47' 27.50" 1.000E-01 0.500 F 0.138 0.088 o 691 0.62 Yes No
2009DL1 O C 2009-02-24.43057 1.000E-05 12:59:41.620 1.500E-01 0.500 F 0.217 -0.308 -05° 14' 30.80" 1.000E-01 0.500 F 0.105 -0.007 o 691 0.62 Yes No
2002EN7 O C 2009-02-24.44080 1.000E-05 13:06:14.380 1.500E-01 0.500 F 0.108 -0.167 -02° 48' 06.40" 1.000E-01 0.500 F 0.138 0.306 o 691 0.71 Yes No
2009DL1 O C 2009-02-24.44866 1.000E-05 12:59:43.330 1.500E-01 0.500 F 0.177 -0.108 -05° 14' 51.00" 1.000E-01 0.500 F 0.141 -0.156 o 691 0.38 Yes No
2002EN7 O C 2009-02-24.45913 1.000E-05 13:06:13.300 1.500E-01 0.500 F 0.108 -1.020 -02° 48' 46.80" 1.000E-01 0.500 F 0.138 -0.417 o 691 2.25 Yes No
2009DL1 O C 2009-02-24.46699 1.000E-05 12:59:45.060 1.500E-01 0.500 F 0.177 -0.023 -05° 15' 11.40" 1.000E-01 0.500 F 0.141 -0.217 o 691 0.44 Yes No
2001QQ142 O C H 2009-02-24.47789 1.000E-05 15:50:20.670 1.500E-01 0.500 F 0.186 0.222 -08° 29' 06.70" 1.000E-01 0.500 F 0.071 0.032 21.5 V 0.70 0.06 o 691 0.45 Yes Yes
2002BK25 O C t 2009-02-24.48059 1.000E-05 15:58:59.040 1.500E-01 0.500 F 0.097 -0.262 -08° 57' 04.80" 1.000E-01 0.500 F 0.118 -0.428 o 691 1.01 Yes No
2001QQ142 O C H 2009-02-24.49095 1.000E-05 15:50:21.310 1.500E-01 0.500 F 0.186 -1.334 -08° 29' 06.00" 1.000E-01 0.500 F 0.071 0.780 21.6 V 0.70 0.16 o 691 3.10 Yes Yes
2002BK25 O C t 2009-02-24.49341 1.000E-05 15:59:12.120 1.500E-01 0.500 F 0.097 0.151 -08° 56' 57.10" 1.000E-01 0.500 F 0.118 -0.396 o 691 0.86 Yes No
2001QQ142 O C H 2009-02-24.50412 1.000E-05 15:50:22.160 1.500E-01 0.500 F 0.186 0.150 -08° 29' 06.60" 1.000E-01 0.500 F 0.071 0.221 21.7 V 0.70 0.26 o 691 0.53 Yes Yes
2002BK25 O C t 2009-02-24.50658 1.000E-05 15:59:25.560 1.500E-01 0.500 F 0.136 0.541 -08° 56' 49.90" 1.000E-01 0.500 F 0.165 -1.191 o 691 2.66 Yes No
2006KT1 O C H 2009-02-26.29215 1.000E-05 11:58:12.170 1.500E-01 0.500 F 0.125 0.727 +07° 52' 33.50" 1.000E-01 0.500 F -0.017 0.264 21.5 V 0.70 0.06 o 691 1.55 Yes Yes
1988XB O C t 2009-02-26.29992 1.000E-05 12:03:43.380 1.500E-01 0.500 F 0.242 0.380 +05° 38' 26.80" 1.000E-01 0.500 F 0.122 -0.914 20.6 V 0.70 -0.11 o 691 1.98 Yes Yes
2006KT1 O C H 2009-02-26.31048 1.000E-05 11:58:11.250 1.500E-01 0.500 F 0.125 0.259 +07° 52' 42.20" 1.000E-01 0.500 F -0.017 0.147 21.5 V 0.70 0.06 o 691 0.60 Yes Yes
1988XB O C H 2009-02-26.31826 1.000E-05 12:03:41.810 1.500E-01 0.500 F 0.242 -0.317 +05° 38' 38.70" 1.000E-01 0.500 F 0.122 -0.092 20.7 V 0.70 -0.01 o 691 0.66 Yes Yes
2006KT1 O C H 2009-02-26.32858 1.000E-05 11:58:10.320 1.500E-01 0.500 F 0.125 -0.502 +07° 52' 50.50" 1.000E-01 0.500 F -0.017 -0.256 o 691 1.13 Yes No
1988XB O C H 2009-02-26.33636 1.000E-05 12:03:40.280 1.500E-01 0.500 F 0.242 -0.676 +05° 38' 48.30" 1.000E-01 0.500 F 0.122 -1.419 o 691 3.14 Yes No
2009DO111 O C 2009-02-26.35312 1.000E-05 12:22:02.080 1.500E-01 0.500 F 0.175 -0.175 +08° 06' 05.80" 1.000E-01 0.500 F 0.113 0.117 19.4 V 0.70 -0.11 o 691 0.43 Yes Yes
2002AV4 O C 2009-02-26.36090 1.000E-05 12:20:15.130 1.500E-01 0.500 F 0.195 -0.070 +06° 34' 31.50" 1.000E-01 0.500 F 0.165 -0.133 19.8 V 0.70 -0.06 o 691 0.30 Yes Yes
2009DO111 O C 2009-02-26.37122 1.000E-05 12:22:01.980 1.500E-01 0.500 F 0.175 -0.358 +08° 06' 10.90" 1.000E-01 0.500 F 0.113 -0.037 19.5 V 0.70 0.00 o 691 0.72 Yes Yes
2002AV4 O C 2009-02-26.37900 1.000E-05 12:20:13.810 1.500E-01 0.500 F 0.195 -0.361 +06° 34' 39.10" 1.000E-01 0.500 F 0.165 -0.041 19.8 V 0.70 -0.06 o 691 0.73 Yes Yes
2009DO111 O C 2009-02-26.38956 1.000E-05 12:22:01.890 1.500E-01 0.500 F 0.175 -0.247 +08° 06' 16.20" 1.000E-01 0.500 F 0.113 0.045 19.6 V 0.70 0.10 o 691 0.51 Yes Yes
2002AV4 O C 2009-02-26.39734 1.000E-05 12:20:12.500 1.500E-01 0.500 F 0.195 -0.234 +06° 34' 46.80" 1.000E-01 0.500 F 0.165 0.057 19.7 V 0.70 -0.15 o 691 0.48 Yes Yes
1996BZ3 O C 2009-02-26.41716 1.000E-05 12:29:35.230 1.500E-01 0.500 F 0.027 -0.203 -04° 14' 55.80" 1.000E-01 0.500 F 0.167 0.125 19.6 V 0.70 0.11 o 691 0.49 Yes Yes
1996BZ3 O C 2009-02-26.43277 1.000E-05 12:29:34.410 1.500E-01 0.500 F 0.027 -0.167 -04° 14' 47.40" 1.000E-01 0.500 F 0.167 -0.078 19.7 V 0.70 0.21 o 691 0.37 Yes Yes
1996BZ3 O C 2009-02-26.44839 1.000E-05 12:29:33.600 1.500E-01 0.500 F 0.027 0.010 -04° 14' 38.40" 1.000E-01 0.500 F 0.167 0.304 20.0 V 0.70 0.51 o 691 0.61 Yes Yes
1999CU3 O C t 2009-02-27.15586 1.000E-05 10:32:41.250 1.500E-01 0.500 F 0.192 0.630 +09° 59' 03.00" 1.000E-01 0.500 F 0.232 -0.817 o 691 2.07 Yes No
2009DA45 O C 2009-02-27.16081 1.000E-05 10:48:02.880 1.500E-01 0.500 F 0.169 -0.718 +10° 21' 12.60" 1.000E-01 0.500 F 0.193 -0.179 20.8 V 0.70 0.29 o 691 1.52 Yes Yes
1999CU3 O C t 2009-02-27.17697 1.000E-05 10:32:38.130 1.500E-01 0.500 F 0.192 0.452 +09° 59' 06.20" 1.000E-01 0.500 F 0.232 -1.187 17.3 V 0.70 0.00 o 691 2.54 Yes Yes
2009DA45 O C 2009-02-27.18536 1.000E-05 10:48:03.900 1.500E-01 0.500 F 0.169 -0.006 +10° 21' 13.40" 1.000E-01 0.500 F 0.193 -0.258 20.7 V 0.70 0.19 o 691 0.53 Yes Yes
1999CU3 O C t 2009-02-27.19805 1.000E-05 10:32:34.990 1.500E-01 0.500 F 0.192 0.076 +09° 59' 10.40" 1.000E-01 0.500 F 0.232 -0.529 17.2 V 0.70 -0.10 o 691 1.07 Yes Yes
2009DA45 O C 2009-02-27.20300 1.000E-05 10:48:04.550 1.500E-01 0.500 F 0.169 -0.418 +10° 21' 14.20" 1.000E-01 0.500 F 0.193 -0.044 20.8 V 0.70 0.29 o 691 0.86 Yes Yes
2000ST20 O C H 2009-02-27.23361 1.000E-05 11:23:48.940 1.500E-01 0.500 F 0.095 0.183 +03° 20' 45.80" 1.000E-01 0.500 F 0.132 -0.148 21.0 V 0.70 0.15 o 691 0.48 Yes Yes
2000ST20 O C H 2009-02-27.25469 1.000E-05 11:23:46.670 1.500E-01 0.500 F 0.095 0.530 +03° 20' 41.30" 1.000E-01 0.500 F 0.132 -0.747 o 691 1.86 Yes No
2000ST20 O C H 2009-02-27.27229 1.000E-05 11:23:44.630 1.500E-01 0.500 F 0.095 -1.282 +03° 20' 38.60" 1.000E-01 0.500 F 0.132 -0.186 o 691 2.61 Yes No
2005GW119 O C H 2009-02-27.28123 1.000E-05 11:42:50.420 1.500E-01 0.500 F 0.256 0.216 +01° 10' 40.20" 1.000E-01 0.500 F 0.167 0.226 o 691 0.63 Yes No
2000GU127 O C H 2009-02-27.28123 1.000E-05 11:39:56.470 1.500E-01 0.500 F 0.256 -0.329 +01° 00' 04.90" 1.000E-01 0.500 F 0.167 -0.533 21.2 V 0.70 -0.37 o 691 1.26 Yes Yes
2000GO82 O C H 2009-02-27.29467 1.000E-05 11:50:13.400 1.500E-01 0.500 F 0.162 0.163 +00° 14' 13.50" 1.000E-01 0.500 F 0.121 0.588 o 691 1.22 Yes No
Verenia O C H 2009-02-27.29713 1.000E-05 11:56:08.590 1.500E-01 0.500 F 0.147 -0.182 +00° 03' 38.60" 1.000E-01 0.500 F 0.188 -0.502 21.1 V 0.70 -0.03 o 691 1.07 Yes Yes
2005GW119 O C H 2009-02-27.30575 1.000E-05 11:42:48.480 1.500E-01 0.500 F 0.256 0.562 +01° 10' 56.00" 1.000E-01 0.500 F 0.167 -0.747 o 691 1.88 Yes No
2000GU127 O C H 2009-02-27.30575 1.000E-05 11:39:54.580 1.500E-01 0.500 F 0.256 -0.689 +01° 00' 21.40" 1.000E-01 0.500 F 0.167 0.522 21.2 V 0.70 -0.37 o 691 1.73 Yes Yes
2000GO82 O C H 2009-02-27.31576 1.000E-05 11:50:12.170 1.500E-01 0.500 F 0.162 0.098 +00° 14' 23.90" 1.000E-01 0.500 F 0.121 -0.213 o 691 0.47 Yes No
Verenia O C H 2009-02-27.31822 1.000E-05 11:56:07.400 1.500E-01 0.500 F 0.147 -0.567 +00° 03' 49.00" 1.000E-01 0.500 F 0.188 -0.136 21.4 V 0.70 0.27 o 691 1.17 Yes Yes
2005GW119 O C H 2009-02-27.32338 1.000E-05 11:42:47.030 1.500E-01 0.500 F 0.256 0.045 +01° 11' 08.80" 1.000E-01 0.500 F 0.167 -0.008 o 691 0.09 Yes No
2000GU127 O C H 2009-02-27.32338 1.000E-05 11:39:53.270 1.500E-01 0.500 F 0.256 -0.175 +01° 00' 31.90" 1.000E-01 0.500 F 0.167 -0.088 21.3 V 0.70 -0.27 o 691 0.39 Yes Yes
2000GO82 O C H 2009-02-27.33684 1.000E-05 11:50:10.900 1.500E-01 0.500 F 0.162 -0.553 +00° 14' 34.80" 1.000E-01 0.500 F 0.121 -0.512 o 691 1.51 Yes No
Verenia O C H 2009-02-27.33930 1.000E-05 11:56:06.240 1.500E-01 0.500 F 0.147 -0.484 +00° 03' 59.60" 1.000E-01 0.500 F 0.188 0.432 21.0 V 0.70 -0.13 o 691 1.30 Yes Yes
2004NL8 O C t 2009-02-27.36265 1.000E-05 12:25:18.270 1.500E-01 0.500 F 0.246 1.324 +00° 04' 04.90" 1.000E-01 0.500 F 0.142 -0.674 16.5 V 0.70 -0.33 o 691 3.01 Yes Yes
2004NL8 O C t 2009-02-27.37871 1.000E-05 12:25:15.440 1.500E-01 0.500 F 0.246 0.638 +00° 04' 31.20" 1.000E-01 0.500 F 0.142 -0.562 16.5 V 0.70 -0.33 o 691 1.72 Yes Yes
2004NL8 O C t 2009-02-27.39476 1.000E-05 12:25:12.700 1.500E-01 0.500 F 0.246 1.278 +00° 04' 57.20" 1.000E-01 0.500 F 0.142 -0.722 16.5 V 0.70 -0.33 o 691 2.98 Yes Yes
2006SD6 O C t 2009-02-27.40175 1.000E-05 12:28:10.320 1.500E-01 0.500 F 0.255 0.325 -07° 13' 55.70" 1.000E-01 0.500 F -0.061 -0.694 o 691 1.55 Yes No
2006SD6 O C t 2009-02-27.41937 1.000E-05 12:28:09.200 1.500E-01 0.500 F 0.255 0.245 -07° 12' 37.10" 1.000E-01 0.500 F -0.061 -0.654 o 691 1.41 Yes No
2006SD6 O C t 2009-02-27.43698 1.000E-05 12:28:08.120 1.500E-01 0.500 F 0.255 0.730 -07° 11' 18.50" 1.000E-01 0.500 F -0.061 -0.609 o 691 1.94 Yes No
2009DL1 O C H 2009-02-27.46573 1.000E-05 13:04:48.750 1.500E-01 0.500 F 0.176 -0.205 -06° 12' 04.50" 1.000E-01 0.500 F 0.168 -0.197 19.3 V 0.70 0.39 o 691 0.57 Yes Yes
2009DL1 O C H 2009-02-27.48334 1.000E-05 13:04:50.410 1.500E-01 0.500 F 0.176 -0.220 -06° 12' 25.00" 1.000E-01 0.500 F 0.168 -0.250 19.1 V 0.70 0.19 o 691 0.67 Yes Yes
2004VV O C H 2009-02-28.20888 1.000E-05 10:49:21.530 1.500E-01 0.500 F 0.016 2.373 +17° 13' 26.60" 1.000E-01 0.500 F 0.126 -1.136 o 691 5.15 No No
1996EN O C 2009-02-28.28582 1.000E-05 11:52:56.870 1.500E-01 0.500 F 0.189 -0.874 +04° 59' 56.30" 1.000E-01 0.500 F 0.204 0.194 o 691 1.79 Yes No
1996EN O C 2009-02-28.30345 1.000E-05 11:52:55.780 1.500E-01 0.500 F 0.189 -0.512 +05° 00' 52.90" 1.000E-01 0.500 F 0.204 0.600 o 691 1.58 Yes No
1996EN O C 2009-02-28.32107 1.000E-05 11:52:54.650 1.500E-01 0.500 F 0.189 -0.684 +05° 01' 47.00" 1.000E-01 0.500 F 0.204 -1.479 o 691 3.25 No No
2009DK46 O C 2009-02-28.34031 1.000E-05 12:06:26.500 1.500E-01 0.500 F 0.201 -0.498 -02° 54' 21.40" 1.000E-01 0.500 F 0.122 0.437 20.8 V 0.70 0.13 o 691 1.35 Yes Yes
1997EH29 O C 2009-02-28.34547 1.000E-05 11:54:58.220 1.500E-01 0.500 F 0.130 -0.595 -03° 24' 04.70" 1.000E-01 0.500 F 0.125 0.028 o 691 1.20 Yes No
1999BY9 O C 2009-02-28.34793 1.000E-05 12:00:21.880 1.500E-01 0.500 F 0.163 -0.455 -04° 13' 07.40" 1.000E-01 0.500 F 0.130 0.172 o 691 0.98 Yes No
2009DK46 O C 2009-02-28.35792 1.000E-05 12:06:25.540 1.500E-01 0.500 F 0.201 -0.193 -02° 53' 57.10" 1.000E-01 0.500 F 0.122 0.300 21.2 V 0.70 0.54 o 691 0.72 Yes Yes
1997EH29 O C 2009-02-28.36309 1.000E-05 11:54:55.530 1.500E-01 0.500 F 0.130 -0.066 -03° 23' 37.80" 1.000E-01 0.500 F 0.125 0.033 o 691 0.15 Yes No
1999BY9 O C 2009-02-28.36555 1.000E-05 12:00:22.220 1.500E-01 0.500 F 0.163 -0.240 -04° 13' 12.90" 1.000E-01 0.500 F 0.130 0.087 o 691 0.51 Yes No
2009DK46 O C 2009-02-28.37554 1.000E-05 12:06:24.550 1.500E-01 0.500 F 0.201 -0.314 -02° 53' 33.60" 1.000E-01 0.500 F 0.122 -0.656 20.5 V 0.70 -0.16 o 691 1.48 Yes Yes
1997EH29 O C 2009-02-28.38070 1.000E-05 11:54:52.780 1.500E-01 0.500 F 0.130 -0.452 -03° 23' 10.40" 1.000E-01 0.500 F 0.125 0.542 o 691 1.42 Yes No
1999BY9 O C 2009-02-28.38316 1.000E-05 12:00:22.550 1.500E-01 0.500 F 0.163 -0.153 -04° 13' 18.40" 1.000E-01 0.500 F 0.130 -0.028 o 691 0.31 Yes No
2009LQ1 O C 2009-02-28.39496 1.000E-05 12:36:00.950 1.500E-01 0.500 F 0.183 0.205 +00° 45' 42.40" 1.000E-01 0.500 F 0.239 -0.087 o 691 0.46 Yes No
2006EV52 O C 2009-02-28.39496 1.000E-05 12:33:53.220 1.500E-01 0.500 F 0.239 -0.788 +00° 44' 28.10" 1.000E-01 0.500 F 0.264 0.200 o 691 1.63 Yes No
2009LQ1 O C 2009-02-28.41260 1.000E-05 12:36:01.240 1.500E-01 0.500 F 0.183 -0.199 +00° 45' 45.30" 1.000E-01 0.500 F 0.239 -0.316 o 691 0.75 Yes No
2006EV52 O C 2009-02-28.41260 1.000E-05 12:33:52.330 1.500E-01 0.500 F 0.239 -0.399 +00° 44' 38.10" 1.000E-01 0.500 F 0.264 -0.010 o 691 0.80 Yes No
2009LQ1 O C 2009-02-28.43023 1.000E-05 12:36:01.580 1.500E-01 0.500 F 0.183 0.131 +00° 45' 49.00" 1.000E-01 0.500 F 0.239 0.256 o 691 0.58 Yes No
2006EV52 O C 2009-02-28.43023 1.000E-05 12:33:51.450 1.500E-01 0.500 F 0.239 0.134 +00° 44' 48.10" 1.000E-01 0.500 F 0.264 -0.217 o 691 0.51 Yes No
Krok O C H 2009-02-28.46419 1.000E-05 13:03:52.130 1.500E-01 0.500 F 0.177 0.039 -04° 08' 12.00" 1.000E-01 0.500 F 0.092 -0.195 o 691 0.40 Yes No
Krok O C H 2009-02-28.48181 1.000E-05 13:03:51.550 1.500E-01 0.500 F 0.177 -0.367 -04° 08' 05.20" 1.000E-01 0.500 F 0.092 -0.183 o 691 0.82 Yes No
Krok O C H 2009-02-28.49943 1.000E-05 13:03:50.970 1.500E-01 0.500 F 0.177 -0.786 -04° 07' 58.00" 1.000E-01 0.500 F 0.092 0.222 o 691 1.63 Yes No
Akka O C H 2009-03-01.16450 1.000E-05 10:21:04.360 1.500E-01 0.500 F 0.149 -0.499 +06° 33' 46.40" 1.000E-01 0.500 F 0.131 0.665 20.4 V 0.70 -0.07 o 691 1.67 Yes Yes
2005NJ1 O C 2009-03-01.16957 1.000E-05 10:12:39.540 1.500E-01 0.500 F 0.144 -0.320 +05° 36' 10.80" 1.000E-01 0.500 F 0.092 -0.140 o 691 0.71 Yes No
2009BD2 O C 2009-03-01.17450 1.000E-05 10:25:55.630 1.500E-01 0.500 F 0.182 0.035 +05° 05' 06.10" 1.000E-01 0.500 F 0.065 0.130 o 691 0.27 Yes No
Florence O C 2009-03-01.17696 1.000E-05 10:38:28.670 1.500E-01 0.500 F 0.173 -0.261 +05° 57' 43.90" 1.000E-01 0.500 F 0.154 -0.105 o 691 0.56 Yes No
2002PG80 O C 2009-03-01.17696 1.000E-05 10:35:41.400 1.500E-01 0.500 F 0.161 -0.384 +04° 55' 21.20" 1.000E-01 0.500 F 0.095 0.167 o 691 0.85 Yes No
Akka O C H 2009-03-01.18212 1.000E-05 10:21:02.920 1.500E-01 0.500 F 0.149 -0.208 +06° 33' 54.20" 1.000E-01 0.500 F 0.131 -0.041 20.8 V 0.70 0.33 o 691 0.42 Yes Yes
2005NJ1 O C 2009-03-01.18720 1.000E-05 10:12:37.770 1.500E-01 0.500 F 0.144 0.439 +05° 36' 18.90" 1.000E-01 0.500 F 0.092 0.628 o 691 1.56 Yes No

[1-200] [201-400] [401-600] [601-800] [801-1000] [1001-1200] [1201-1400] [1401-1600] [1601-1800] [1801-2000] [2001-2200] [2201-2400] [2401-2600] [2601-2800] [2801-3000] [3001-3200] [3201-3400] [3401-3600] [3601-3800] [3801-4000] [4001-4200] [4201-4400] [4401-4600] [4601-4800] [4801-5000] [5001-5200] [5201-5400] [5401-5600] [5601-5800] [5801-6000] [6001-6200] [6201-6400] [6401-6600] [6601-6800] [6801-7000] [7001-7200] [7201-7400] [7401-7600] [7601-7800] [7801-8000] [8001-8200] [8201-8400] [8401-8600] [8601-8800] [8801-9000] [9001-9200] [9201-9400] [9401-9600] [9601-9800] [9801-10000] [10001-10200] [10201-10400] [10401-10600] [10601-10800] [10801-11000] [11001-11200] [11201-11400] [11401-11600] [11601-11800] [11801-12000] [12001-12200] [12201-12400] [12401-12600] [12601-12800] [12801-13000] [13001-13200] [13201-13400] [13401-13600] [13601-13800] [13801-14000] [14001-14200] [14201-14400] [14401-14600] [14601-14800] [14801-15000] [15001-15200] [15201-15400] [15401-15600] [15601-15800] [15801-16000] [16001-16200] [16201-16400] [16401-16600] [16601-16800] [16801-17000] [17001-17200] [17201-17400] [17401-17600] [17601-17800] [17801-18000] [18001-18200] [18201-18400] [18401-18600] [18601-18800] [18801-19000] [19001-19200] [19201-19400] [19401-19600] [19601-19800] [19801-20000] [20001-20200] [20201-20400] [20401-20600] [20601-20800] [20801-21000] [21001-21200] [21201-21400] [21401-21600] [21601-21800] [21801-22000] [22001-22200] [22201-22400] [22401-22600] [22601-22800] [22801-23000] [23001-23200] [23201-23400] [23401-23600] [23601-23800] [23801-24000] [24001-24200] [24201-24400] [24401-24600] [24601-24800] [24801-25000] [25001-25200] [25201-25400] [25401-25600] [25601-25800] [25801-26000] [26001-26200] [26201-26400] [26401-26600] [26601-26800] [26801-27000] [27001-27200] [27201-27400] [27401-27600] [27601-27800] [27801-28000] [28001-28200] [28201-28400] [28401-28600] [28601-28800] [28801-29000] [29001-29200] [29201-29400] [29401-29600] [29601-29800] [29801-30000] [30001-30200] [30201-30400] [30401-30600] [30601-30800] [30801-31000] [31001-31200] [31201-31400] [31401-31600] [31601-31800] [31801-32000] [32001-32200] [32201-32400] [32401-32600] [32601-32800] [32801-33000] [33001-33200] [33201-33400] [33401-33600] [33601-33800] [33801-34000] [34001-34200] [34201-34400] [34401-34600] [34601-34800] [34801-35000] [35001-35200] [35201-35400] [35401-35600] [35601-35800] [35801-36000] [36001-36200] [36201-36400] [36401-36600] [36601-36800] [36801-37000] [37001-37200] [37201-37400] [37401-37600] [37601-37800] [37801-38000] [38001-38200] [38201-38400] [38401-38600] [38601-38800] [38801-39000] [39001-39200] [39201-39400] [39401-39600] [39601-39800] [39801-40000] [40001-40200] [40201-40400] [40401-40600] [40601-40800] [40801-41000] [41001-41200] [41201-41400] [41401-41600] [41601-41800] [41801-42000] [42001-42200] [42201-42400] [42401-42600] [42601-42800] [42801-43000] [43001-43200] [43201-43400] [43401-43600] [43601-43800] [43801-44000] [44001-44200] [44201-44400] [44401-44600] [44601-44800] [44801-45000] [45001-45200] [45201-45400] [45401-45600] [45601-45800] [45801-46000] [46001-46200] [46201-46400] [46401-46600] [46601-46800] [46801-47000] [47001-47200] [47201-47400] [47401-47600] [47601-47800] [47801-48000] [48001-48200] [48201-48400] [48401-48600] [48601-48800] [48801-49000] [49001-49200] [49201-49400] [49401-49600] [49601-49800] [49801-50000] [50001-50200] [50201-50388]